Wetterdaten: Woche 19.06.17 - 25.06.17 (KW25)
Datum Zeit Temp. A. Feuchte A. Luftdruck Regen Wind Richtung Taupunkt Windchill Windben
19.06.2017 00:00 15,0 C 75 % 1023,0 hPa 0,0 l/m 0,0 km/h N 10,6 C 15,0 C 0,8 km/h
19.06.2017 01:00 14,9 C 77 % 1023,0 hPa 0,0 l/m 0,0 km/h N 10,8 C 14,9 C 2,0 km/h
19.06.2017 02:00 14,9 C 76 % 1022,9 hPa 0,0 l/m 0,1 km/h N 10,6 C 14,9 C 2,8 km/h
19.06.2017 03:00 14,2 C 78 % 1022,6 hPa 0,0 l/m 0,0 km/h N 10,3 C 14,2 C 0,8 km/h
19.06.2017 04:00 14,1 C 78 % 1022,5 hPa 0,0 l/m 0,0 km/h N 10,3 C 14,1 C 1,6 km/h
19.06.2017 05:00 13,8 C 79 % 1022,6 hPa 0,0 l/m 0,0 km/h N 10,3 C 13,8 C 1,6 km/h
19.06.2017 06:00 14,6 C 80 % 1022,5 hPa 0,0 l/m 0,2 km/h N 11,1 C 14,6 C 3,6 km/h
19.06.2017 07:00 16,3 C 78 % 1022,5 hPa 0,0 l/m 0,0 km/h N 12,4 C 16,3 C 1,2 km/h
19.06.2017 08:00 20,1 C 67 % 1022,2 hPa 0,0 l/m 0,3 km/h N 13,8 C 20,1 C 5,2 km/h
19.06.2017 09:00 22,9 C 58 % 1022,2 hPa 0,0 l/m 0,8 km/h N 14,1 C 22,9 C 7,6 km/h
19.06.2017 10:00 24,6 C 51 % 1022,0 hPa 0,0 l/m 0,9 km/h N 13,8 C 24,6 C 7,7 km/h
19.06.2017 11:00 25,5 C 48 % 1021,8 hPa 0,0 l/m 1,5 km/h N 13,7 C 25,5 C 8,9 km/h
19.06.2017 12:00 26,1 C 47 % 1021,4 hPa 0,0 l/m 1,0 km/h N 13,9 C 26,1 C 8,4 km/h
19.06.2017 13:00 27,6 C 44 % 1020,9 hPa 0,0 l/m 0,6 km/h N 14,4 C 27,6 C 7,7 km/h
19.06.2017 14:00 28,7 C 43 % 1020,2 hPa 0,0 l/m 1,1 km/h N 14,7 C 28,7 C 8,8 km/h
19.06.2017 15:00 28,9 C 41 % 1019,7 hPa 0,0 l/m 1,0 km/h N 14,1 C 28,9 C 8,1 km/h
19.06.2017 16:00 28,1 C 42 % 1019,2 hPa 0,0 l/m 0,9 km/h N 14,0 C 28,1 C 7,6 km/h
19.06.2017 17:00 28,5 C 40 % 1018,7 hPa 0,0 l/m 0,4 km/h N 13,6 C 28,5 C 4,8 km/h
19.06.2017 18:00 29,8 C 38 % 1018,2 hPa 0,0 l/m 0,3 km/h N 14,0 C 29,8 C 4,4 km/h
19.06.2017 19:00 29,7 C 39 % 1017,9 hPa 0,0 l/m 0,1 km/h N 14,2 C 29,7 C 2,8 km/h
19.06.2017 20:00 28,0 C 42 % 1017,7 hPa 0,0 l/m 0,1 km/h N 13,7 C 28,0 C 1,6 km/h
19.06.2017 21:00 24,1 C 52 % 1017,9 hPa 0,0 l/m 0,0 km/h N 13,5 C 24,1 C 0,4 km/h
19.06.2017 22:00 20,5 C 62 % 1018,0 hPa 0,0 l/m 0,0 km/h N 12,9 C 20,5 C 0,0 km/h
19.06.2017 23:00 18,4 C 68 % 1017,9 hPa 0,0 l/m 0,0 km/h N 12,3 C 18,4 C 0,0 km/h
20.06.2017 00:00 17,2 C 72 % 1017,8 hPa 0,0 l/m 0,0 km/h N 12,1 C 17,2 C 0,0 km/h
20.06.2017 01:00 16,1 C 76 % 1017,3 hPa 0,0 l/m 0,0 km/h N 11,8 C 16,1 C 0,0 km/h
20.06.2017 02:00 14,9 C 78 % 1017,1 hPa 0,0 l/m 0,0 km/h N 11,1 C 14,9 C 0,0 km/h
20.06.2017 03:00 14,3 C 80 % 1016,7 hPa 0,0 l/m 0,0 km/h N 11,0 C 14,3 C 0,4 km/h
20.06.2017 04:00 13,9 C 81 % 1016,4 hPa 0,0 l/m 0,0 km/h N 10,7 C 13,9 C 0,0 km/h
20.06.2017 05:00 13,4 C 82 % 1016,4 hPa 0,0 l/m 0,0 km/h N 10,3 C 13,4 C 0,0 km/h
20.06.2017 06:00 13,7 C 82 % 1016,2 hPa 0,0 l/m 0,0 km/h N 10,7 C 13,7 C 0,0 km/h
20.06.2017 07:00 15,8 C 82 % 1016,1 hPa 0,0 l/m 0,0 km/h N 12,6 C 15,8 C 0,8 km/h
20.06.2017 08:00 20,5 C 72 % 1015,9 hPa 0,0 l/m 0,0 km/h N 15,2 C 20,5 C 2,0 km/h
20.06.2017 09:00 25,5 C 56 % 1015,7 hPa 0,0 l/m 0,0 km/h N 16,0 C 25,5 C 2,0 km/h
20.06.2017 10:00 28,3 C 51 % 1015,5 hPa 0,0 l/m 0,2 km/h N 17,1 C 28,3 C 4,0 km/h
20.06.2017 11:00 30,4 C 47 % 1015,0 hPa 0,0 l/m 0,5 km/h N 17,9 C 30,4 C 5,6 km/h
20.06.2017 12:00 31,2 C 42 % 1014,6 hPa 0,0 l/m 3,7 km/h N 16,8 C 31,2 C 17,3 km/h
20.06.2017 13:00 31,9 C 40 % 1014,0 hPa 0,0 l/m 4,6 km/h N 16,3 C 31,9 C 18,1 km/h
20.06.2017 14:00 32,5 C 38 % 1013,2 hPa 0,0 l/m 6,6 km/h N 16,3 C 32,5 C 24,5 km/h
20.06.2017 15:00 32,5 C 38 % 1012,6 hPa 0,0 l/m 9,1 km/h N 16,2 C 32,4 C 25,7 km/h
20.06.2017 16:00 32,5 C 35 % 1012,1 hPa 0,0 l/m 7,7 km/h N 15,1 C 32,5 C 23,3 km/h
20.06.2017 17:00 33,1 C 33 % 1011,7 hPa 0,0 l/m 7,1 km/h N 14,6 C 33,1 C 22,5 km/h
20.06.2017 18:00 33,3 C 38 % 1011,2 hPa 0,0 l/m 2,6 km/h N 16,9 C 33,3 C 17,3 km/h
20.06.2017 19:00 33,3 C 38 % 1010,9 hPa 0,0 l/m 0,3 km/h N 17,0 C 33,3 C 4,8 km/h
20.06.2017 20:00 31,4 C 41 % 1010,7 hPa 0,0 l/m 0,0 km/h N 16,6 C 31,4 C 0,8 km/h
20.06.2017 21:00 27,8 C 50 % 1010,8 hPa 0,0 l/m 0,0 km/h N 16,3 C 27,8 C 0,0 km/h
20.06.2017 22:00 25,3 C 55 % 1010,9 hPa 0,0 l/m 0,0 km/h N 15,6 C 25,3 C 0,0 km/h
20.06.2017 23:00 26,4 C 48 % 1010,7 hPa 0,0 l/m 1,5 km/h N 14,4 C 26,4 C 11,6 km/h
21.06.2017 00:00 26,8 C 48 % 1011,0 hPa 0,0 l/m 0,0 km/h N 14,8 C 26,8 C 2,4 km/h
21.06.2017 01:00 24,3 C 55 % 1011,0 hPa 0,0 l/m 0,0 km/h N 14,6 C 24,3 C 1,2 km/h
21.06.2017 02:00 23,6 C 58 % 1010,9 hPa 0,0 l/m 0,3 km/h N 14,9 C 23,6 C 3,6 km/h
21.06.2017 03:00 23,9 C 57 % 1011,0 hPa 0,0 l/m 0,3 km/h N 14,7 C 23,9 C 4,4 km/h
21.06.2017 04:00 22,6 C 59 % 1011,5 hPa 0,0 l/m 0,3 km/h N 14,1 C 22,6 C 3,6 km/h
21.06.2017 05:00 22,9 C 59 % 1012,0 hPa 0,0 l/m 0,0 km/h N 14,4 C 22,9 C 1,2 km/h
21.06.2017 06:00 22,6 C 61 % 1012,8 hPa 0,0 l/m 2,1 km/h N 14,6 C 22,6 C 11,7 km/h
21.06.2017 07:00 23,0 C 63 % 1013,3 hPa 0,0 l/m 3,7 km/h N 15,6 C 23,0 C 16,5 km/h
21.06.2017 08:00 24,4 C 63 % 1013,7 hPa 0,0 l/m 3,5 km/h N 16,9 C 24,4 C 13,7 km/h
21.06.2017 09:00 25,5 C 61 % 1014,0 hPa 0,0 l/m 4,8 km/h N 17,3 C 25,5 C 18,1 km/h
21.06.2017 10:00 26,4 C 60 % 1014,0 hPa 0,0 l/m 5,2 km/h N 17,8 C 26,4 C 18,1 km/h
21.06.2017 11:00 27,4 C 57 % 1013,9 hPa 0,0 l/m 5,1 km/h N 18,0 C 27,4 C 18,5 km/h
21.06.2017 12:00 28,5 C 54 % 1013,8 hPa 0,0 l/m 3,9 km/h N 18,1 C 28,5 C 14,9 km/h
21.06.2017 13:00 29,2 C 51 % 1013,3 hPa 0,0 l/m 3,8 km/h N 18,0 C 29,2 C 15,3 km/h
21.06.2017 14:00 29,6 C 49 % 1012,6 hPa 0,0 l/m 4,0 km/h N 17,5 C 29,6 C 15,3 km/h
21.06.2017 15:00 29,8 C 49 % 1012,3 hPa 0,0 l/m 3,1 km/h N 17,9 C 29,8 C 12,9 km/h
21.06.2017 16:00 29,2 C 50 % 1012,5 hPa 0,0 l/m 3,7 km/h N 17,5 C 29,2 C 13,7 km/h
21.06.2017 17:00 29,1 C 51 % 1012,2 hPa 0,0 l/m 2,8 km/h N 17,8 C 29,1 C 12,5 km/h
21.06.2017 18:00 28,9 C 53 % 1012,0 hPa 0,0 l/m 0,3 km/h N 18,2 C 28,9 C 4,4 km/h
21.06.2017 19:00 28,3 C 53 % 1012,1 hPa 0,0 l/m 0,3 km/h N 17,7 C 28,3 C 4,4 km/h
21.06.2017 20:00 27,4 C 57 % 1012,4 hPa 0,0 l/m 0,0 km/h N 18,1 C 27,4 C 0,0 km/h
21.06.2017 21:00 26,0 C 60 % 1012,7 hPa 0,0 l/m 0,0 km/h N 17,6 C 26,0 C 0,4 km/h
21.06.2017 22:00 24,7 C 65 % 1013,3 hPa 0,0 l/m 0,0 km/h N 17,7 C 24,7 C 0,8 km/h
21.06.2017 23:00 23,8 C 69 % 1013,5 hPa 0,0 l/m 0,2 km/h N 17,6 C 23,8 C 2,0 km/h
22.06.2017 00:00 22,0 C 71 % 1013,3 hPa 0,0 l/m 0,0 km/h N 16,5 C 22,0 C 0,4 km/h
22.06.2017 01:00 20,2 C 75 % 1013,6 hPa 0,0 l/m 0,0 km/h N 15,6 C 20,2 C 0,0 km/h
22.06.2017 02:00 19,3 C 77 % 1013,6 hPa 0,0 l/m 0,0 km/h N 15,1 C 19,3 C 0,8 km/h
22.06.2017 03:00 18,9 C 76 % 1013,6 hPa 0,0 l/m 0,0 km/h N 14,5 C 18,9 C 1,2 km/h
22.06.2017 04:00 18,4 C 76 % 1013,6 hPa 0,0 l/m 0,0 km/h N 14,0 C 18,4 C 1,2 km/h
22.06.2017 05:00 17,8 C 77 % 1013,7 hPa 0,0 l/m 0,0 km/h N 13,7 C 17,8 C 0,4 km/h
22.06.2017 06:00 18,4 C 77 % 1014,1 hPa 0,0 l/m 0,1 km/h N 14,3 C 18,4 C 2,4 km/h
22.06.2017 07:00 19,9 C 74 % 1014,3 hPa 0,0 l/m 0,0 km/h N 15,1 C 19,9 C 0,8 km/h
22.06.2017 08:00 22,8 C 66 % 1014,4 hPa 0,0 l/m 0,0 km/h N 16,0 C 22,8 C 0,8 km/h
22.06.2017 09:00 26,2 C 59 % 1014,4 hPa 0,0 l/m 0,0 km/h N 17,4 C 26,2 C 2,0 km/h
22.06.2017 10:00 28,3 C 49 % 1014,2 hPa 0,0 l/m 0,2 km/h N 16,6 C 28,3 C 3,6 km/h
22.06.2017 11:00 29,9 C 47 % 1013,9 hPa 0,0 l/m 0,5 km/h N 17,4 C 29,9 C 6,8 km/h
22.06.2017 12:00 30,7 C 49 % 1013,5 hPa 0,0 l/m 2,7 km/h N 18,8 C 30,7 C 13,7 km/h
22.06.2017 13:00 31,2 C 49 % 1013,0 hPa 0,0 l/m 3,8 km/h N 19,2 C 31,2 C 16,9 km/h
22.06.2017 14:00 32,2 C 46 % 1012,2 hPa 0,0 l/m 3,6 km/h N 18,9 C 32,2 C 13,7 km/h
22.06.2017 15:00 32,9 C 38 % 1011,5 hPa 0,0 l/m 4,3 km/h N 16,4 C 32,9 C 18,1 km/h
22.06.2017 16:00 33,2 C 35 % 1011,0 hPa 0,0 l/m 7,2 km/h N 15,4 C 33,2 C 22,1 km/h
22.06.2017 17:00 33,7 C 32 % 1010,8 hPa 0,0 l/m 5,5 km/h N 14,8 C 33,7 C 18,1 km/h
22.06.2017 18:00 33,9 C 36 % 1010,3 hPa 0,0 l/m 3,8 km/h N 16,6 C 33,9 C 16,5 km/h
22.06.2017 19:00 34,3 C 40 % 1009,8 hPa 0,0 l/m 0,1 km/h N 18,5 C 34,3 C 2,8 km/h
22.06.2017 20:00 31,3 C 46 % 1009,9 hPa 0,0 l/m 0,0 km/h N 18,1 C 31,3 C 0,8 km/h
22.06.2017 21:00 27,3 C 56 % 1010,1 hPa 0,0 l/m 0,0 km/h N 17,8 C 27,3 C 0,0 km/h
22.06.2017 22:00 25,3 C 63 % 1009,9 hPa 0,0 l/m 0,0 km/h N 17,8 C 25,3 C 0,4 km/h
22.06.2017 23:00 23,9 C 69 % 1009,4 hPa 0,0 l/m 0,0 km/h N 17,7 C 23,9 C 1,2 km/h
23.06.2017 00:00 23,3 C 70 % 1009,2 hPa 0,0 l/m 0,0 km/h N 17,4 C 23,3 C 0,8 km/h
23.06.2017 01:00 23,1 C 70 % 1008,6 hPa 0,0 l/m 0,0 km/h N 17,2 C 23,1 C 0,0 km/h
23.06.2017 02:00 22,9 C 70 % 1008,1 hPa 0,0 l/m 0,0 km/h N 17,0 C 22,9 C 1,2 km/h
23.06.2017 03:00 22,3 C 71 % 1007,8 hPa 0,0 l/m 0,0 km/h N 16,6 C 22,3 C 0,4 km/h
23.06.2017 04:00 22,7 C 70 % 1010,4 hPa 0,8 l/m 11,1 km/h N 16,7 C 21,3 C 33,0 km/h
23.06.2017 05:00 20,1 C 80 % 1010,9 hPa 2,1 l/m 2,0 km/h N 16,4 C 20,1 C 9,6 km/h
23.06.2017 06:00 19,3 C 81 % 1010,3 hPa 0,0 l/m 0,1 km/h N 15,9 C 19,3 C 2,4 km/h
23.06.2017 07:00 19,4 C 81 % 1009,9 hPa 0,0 l/m 0,3 km/h N 16,0 C 19,4 C 3,2 km/h
23.06.2017 08:00 21,1 C 81 % 1009,4 hPa 0,0 l/m 0,3 km/h N 17,7 C 21,1 C 6,5 km/h
23.06.2017 09:00 22,5 C 80 % 1010,3 hPa 0,0 l/m 2,5 km/h N 18,8 C 22,5 C 12,0 km/h
23.06.2017 10:00 24,8 C 73 % 1010,3 hPa 0,0 l/m 2,7 km/h N 19,6 C 24,8 C 12,1 km/h
23.06.2017 11:00 28,2 C 58 % 1010,4 hPa 0,0 l/m 5,0 km/h N 19,0 C 28,2 C 25,7 km/h
23.06.2017 12:00 29,4 C 56 % 1010,0 hPa 0,0 l/m 5,2 km/h N 19,6 C 29,4 C 28,6 km/h
23.06.2017 13:00 28,6 C 63 % 1010,0 hPa 0,0 l/m 6,2 km/h N 20,8 C 28,6 C 22,5 km/h
23.06.2017 14:00 27,6 C 67 % 1010,0 hPa 0,0 l/m 3,3 km/h N 20,9 C 27,6 C 13,7 km/h
23.06.2017 15:00 28,5 C 60 % 1009,7 hPa 0,0 l/m 1,7 km/h N 19,9 C 28,5 C 9,3 km/h
23.06.2017 16:00 29,8 C 52 % 1009,6 hPa 0,0 l/m 1,3 km/h N 18,8 C 29,8 C 9,3 km/h
23.06.2017 17:00 30,8 C 49 % 1009,1 hPa 0,0 l/m 2,0 km/h N 18,7 C 30,8 C 9,6 km/h
23.06.2017 18:00 31,0 C 47 % 1009,1 hPa 0,0 l/m 0,8 km/h N 18,4 C 31,0 C 6,8 km/h
23.06.2017 19:00 30,5 C 44 % 1009,9 hPa 0,0 l/m 2,4 km/h N 16,7 C 30,5 C 10,4 km/h
23.06.2017 20:00 29,4 C 40 % 1010,7 hPa 0,0 l/m 2,3 km/h N 14,3 C 29,4 C 11,3 km/h
23.06.2017 21:00 27,4 C 43 % 1011,9 hPa 0,0 l/m 0,5 km/h N 13,5 C 27,4 C 6,0 km/h
23.06.2017 22:00 25,2 C 49 % 1012,7 hPa 0,0 l/m 0,1 km/h N 13,5 C 25,2 C 2,4 km/h
23.06.2017 23:00 23,0 C 58 % 1013,4 hPa 0,0 l/m 0,0 km/h N 14,3 C 23,0 C 1,2 km/h
24.06.2017 00:00 21,8 C 67 % 1013,8 hPa 0,0 l/m 0,0 km/h N 15,4 C 21,8 C 1,6 km/h
24.06.2017 01:00 20,9 C 69 % 1014,4 hPa 0,0 l/m 0,0 km/h N 15,1 C 20,9 C 0,0 km/h
24.06.2017 02:00 19,3 C 74 % 1014,6 hPa 0,0 l/m 0,0 km/h N 14,4 C 19,3 C 0,0 km/h
24.06.2017 03:00 18,0 C 78 % 1014,8 hPa 0,0 l/m 0,0 km/h N 14,0 C 18,0 C 0,0 km/h
24.06.2017 04:00 17,6 C 79 % 1015,1 hPa 0,0 l/m 0,0 km/h N 13,9 C 17,6 C 0,0 km/h
24.06.2017 05:00 17,6 C 79 % 1015,2 hPa 0,0 l/m 0,0 km/h N 13,9 C 17,6 C 0,4 km/h
24.06.2017 06:00 17,5 C 80 % 1015,4 hPa 0,0 l/m 0,0 km/h N 14,0 C 17,5 C 0,0 km/h
24.06.2017 07:00 18,5 C 80 % 1015,3 hPa 0,0 l/m 0,0 km/h N 14,9 C 18,5 C 0,4 km/h
24.06.2017 08:00 22,9 C 65 % 1015,0 hPa 0,0 l/m 0,6 km/h N 15,8 C 22,9 C 6,4 km/h
24.06.2017 09:00 26,1 C 52 % 1014,8 hPa 0,0 l/m 4,3 km/h N 15,3 C 26,1 C 17,3 km/h
24.06.2017 10:00 27,3 C 49 % 1014,6 hPa 0,0 l/m 5,9 km/h N 15,4 C 27,3 C 23,7 km/h
24.06.2017 11:00 27,9 C 49 % 1014,2 hPa 0,0 l/m 9,2 km/h N 16,0 C 27,5 C 30,6 km/h
24.06.2017 12:00 29,6 C 46 % 1013,8 hPa 0,0 l/m 5,5 km/h N 16,8 C 29,5 C 26,6 km/h
24.06.2017 13:00 29,7 C 47 % 1013,3 hPa 0,0 l/m 9,1 km/h N 17,2 C 29,4 C 30,2 km/h
24.06.2017 14:00 30,5 C 46 % 1012,7 hPa 0,0 l/m 8,0 km/h N 17,4 C 30,4 C 29,0 km/h
24.06.2017 15:00 30,5 C 45 % 1012,1 hPa 0,0 l/m 9,6 km/h N 17,1 C 30,3 C 28,2 km/h
24.06.2017 16:00 30,8 C 45 % 1011,4 hPa 0,0 l/m 6,7 km/h N 17,4 C 30,8 C 27,3 km/h
24.06.2017 17:00 31,0 C 44 % 1011,0 hPa 0,0 l/m 8,4 km/h N 17,1 C 30,8 C 26,2 km/h
24.06.2017 18:00 31,5 C 44 % 1010,7 hPa 0,0 l/m 2,8 km/h N 17,8 C 31,5 C 17,7 km/h
24.06.2017 19:00 31,1 C 46 % 1010,4 hPa 0,0 l/m 1,8 km/h N 18,1 C 31,1 C 13,7 km/h
24.06.2017 20:00 29,8 C 48 % 1010,5 hPa 0,0 l/m 2,0 km/h N 17,4 C 29,8 C 16,5 km/h
24.06.2017 21:00 28,3 C 52 % 1011,0 hPa 0,0 l/m 1,4 km/h N 17,4 C 28,3 C 12,1 km/h
24.06.2017 22:00 27,5 C 54 % 1011,3 hPa 0,0 l/m 1,8 km/h N 17,4 C 27,5 C 12,9 km/h
24.06.2017 23:00 27,6 C 52 % 1011,3 hPa 0,0 l/m 6,7 km/h N 16,8 C 27,5 C 22,1 km/h
25.06.2017 00:00 27,3 C 54 % 1011,5 hPa 0,0 l/m 7,7 km/h N 17,1 C 27,0 C 23,7 km/h
25.06.2017 01:00 26,5 C 57 % 1011,4 hPa 0,0 l/m 4,8 km/h N 17,2 C 26,5 C 18,9 km/h
25.06.2017 02:00 26,0 C 58 % 1011,0 hPa 0,0 l/m 2,5 km/h N 17,1 C 26,0 C 16,9 km/h
25.06.2017 03:00 24,7 C 63 % 1011,0 hPa 0,0 l/m 0,4 km/h N 17,1 C 24,7 C 6,0 km/h
25.06.2017 04:00 22,8 C 69 % 1011,4 hPa 0,0 l/m 0,0 km/h N 16,7 C 22,8 C 0,8 km/h
25.06.2017 05:00 21,8 C 73 % 1011,3 hPa 0,0 l/m 0,1 km/h N 16,7 C 21,8 C 2,0 km/h
25.06.2017 06:00 21,9 C 74 % 1011,8 hPa 0,0 l/m 0,0 km/h N 17,0 C 21,9 C 0,0 km/h
25.06.2017 07:00 22,1 C 70 % 1012,0 hPa 0,0 l/m 0,0 km/h N 16,4 C 22,1 C 1,2 km/h
25.06.2017 08:00 23,8 C 55 % 1012,2 hPa 0,0 l/m 1,3 km/h N 14,3 C 23,8 C 8,8 km/h
25.06.2017 09:00 26,1 C 50 % 1012,3 hPa 0,0 l/m 0,9 km/h N 14,9 C 26,1 C 8,0 km/h
25.06.2017 10:00 27,5 C 47 % 1012,1 hPa 0,0 l/m 1,0 km/h N 15,2 C 27,5 C 7,6 km/h
25.06.2017 11:00 28,2 C 48 % 1011,6 hPa 0,0 l/m 2,5 km/h N 16,1 C 28,2 C 13,3 km/h
25.06.2017 12:00 28,6 C 51 % 1010,8 hPa 0,0 l/m 2,1 km/h N 17,4 C 28,6 C 12,1 km/h
25.06.2017 13:00 28,3 C 50 % 1010,3 hPa 0,0 l/m 2,5 km/h N 16,9 C 28,3 C 12,1 km/h
25.06.2017 14:00 26,6 C 54 % 1010,7 hPa 0,0 l/m 5,0 km/h N 16,4 C 26,6 C 18,1 km/h
25.06.2017 15:00 22,1 C 73 % 1011,5 hPa 2,1 l/m 4,7 km/h N 17,1 C 21,9 C 19,7 km/h
25.06.2017 16:00 19,6 C 80 % 1012,0 hPa 1,8 l/m 4,6 km/h N 16,1 C 19,6 C 19,3 km/h
25.06.2017 17:00 19,3 C 81 % 1011,9 hPa 1,3 l/m 5,3 km/h N 16,0 C 19,3 C 17,7 km/h
25.06.2017 18:00 20,1 C 80 % 1011,9 hPa 0,8 l/m 4,2 km/h N 16,6 C 20,1 C 16,5 km/h
25.06.2017 19:00 20,1 C 78 % 1011,4 hPa 1,0 l/m 6,5 km/h N 16,1 C 19,8 C 20,1 km/h
25.06.2017 20:00 20,5 C 76 % 1010,8 hPa 0,5 l/m 6,4 km/h N 16,1 C 20,3 C 22,1 km/h
25.06.2017 21:00 20,5 C 76 % 1011,3 hPa 0,0 l/m 2,8 km/h N 16,0 C 20,5 C 12,1 km/h
25.06.2017 22:00 20,8 C 74 % 1011,5 hPa 0,0 l/m 5,0 km/h N 16,0 C 20,7 C 20,5 km/h
25.06.2017 23:00 21,2 C 73 % 1011,7 hPa 0,0 l/m 8,3 km/h N 16,1 C 20,5 C 25,8 km/h
Min-Datum _ 20.06.17 20.06.17 23.06.17 - 19.06.17 - 20.06.17 20.06.17 19.06.17
_ Min-Zeit 05:45 17:00 03:15 - 00:00 - 05:45 05:45 00:15
Minimum _ 13,3 C 31 % 1007,5 hPa - 0,0 km/h - 10,1 C 13,3 C 0,0 km/h
Max-Datum _ 22.06.17 20.06.17 19.06.17 23.06.17 24.06.17 - 23.06.17 22.06.17 23.06.17
_ Max-Zeit 19:15 05:15 00:00 05:00 13:30 - 13:30 19:15 04:00
Maximum _ 34,7 C 82 % 1023,0 hPa 2,1 l/m 14,7 km/h
N
- 21,6 C 34,7 C 40,2 km/h
N
Durchschnitt _ 24,8 C 59 % 1013,5 hPa #10,4 l/m 2,0 km/h N 15,8 C 24,8 C 9,2 km/h